Time;durP1;ratioP1;P1;durP2;ratioP2;P2;SDS_P1;SDS_P2;PMS_P1;PMS_P2;Temp;Humidity;BMP_temperature;BMP_pressure;BME280_temperature;BME280_humidity;BME280_pressure;Samples;Min_cycle;Max_cycle;Signal;HPM_P1;HPM_P2
2022/01/08 00:01:39;;;;;;;;;0.00;0.00;;;;;;;;5029595;28;45455;-67
2022/01/08 00:04:05;;;;;;;;;0.00;0.00;;;;;;;;5030093;28;45498;-67
2022/01/08 00:06:30;;;;;;;;;1.00;1.00;;;;;;;;5031883;28;45958;-67
2022/01/08 00:08:56;;;;;;;;;2.00;0.00;;;;;;;;5030246;28;45455;-67
2022/01/08 00:11:25;;;;;;;;;1.00;0.00;;;;;;;;5029540;28;45412;-67
2022/01/08 00:13:50;;;;;;;;;0.25;0.00;;;;;;;;5032406;27;45484;-67
2022/01/08 00:16:15;;;;;;;;;0.00;0.00;;;;;;;;5013466;28;47576;-67
2022/01/08 00:18:40;;;;;;;;;0.00;0.00;;;;;;;;5042567;28;46494;-68
2022/01/08 00:21:06;;;;;;;;;0.00;0.00;;;;;;;;5030729;27;45946;-68
2022/01/08 00:23:31;;;;;;;;;0.00;0.00;;;;;;;;5031075;27;45380;-68
2022/01/08 00:25:58;;;;;;;;;0.00;0.00;;;;;;;;5040325;28;46191;-69
2022/01/08 00:28:24;;;;;;;;;0.00;0.00;;;;;;;;5040474;27;45437;-67
2022/01/08 00:30:50;;;;;;;;;0.00;0.00;;;;;;;;5031108;28;45664;-67
2022/01/08 00:33:15;;;;;;;;;0.00;0.00;;;;;;;;5033920;27;45403;-68
2022/01/08 00:35:40;;;;;;;;;0.00;0.00;;;;;;;;5027780;27;45523;-68
2022/01/08 00:38:05;;;;;;;;;0.00;0.00;;;;;;;;5030155;27;45336;-68
2022/01/08 00:40:31;;;;;;;;;1.00;0.00;;;;;;;;5039753;27;45441;-67
2022/01/08 00:42:56;;;;;;;;;0.00;0.00;;;;;;;;5040997;28;45441;-66
2022/01/08 00:45:21;;;;;;;;;0.00;0.00;;;;;;;;5021702;28;47256;-66
2022/01/08 00:47:47;;;;;;;;;0.00;0.00;;;;;;;;5025788;28;45330;-66
2022/01/08 00:50:12;;;;;;;;;0.00;0.00;;;;;;;;5028060;28;45416;-66
2022/01/08 00:52:38;;;;;;;;;0.25;0.00;;;;;;;;5028577;27;45352;-66
2022/01/08 00:55:03;;;;;;;;;0.00;0.00;;;;;;;;5028614;28;45384;-67
2022/01/08 00:57:28;;;;;;;;;0.00;0.00;;;;;;;;5030415;28;45659;-67
2022/01/08 00:59:54;;;;;;;;;0.00;0.00;;;;;;;;5027803;27;45443;-66
2022/01/08 01:02:19;;;;;;;;;2.00;0.00;;;;;;;;5027980;27;45464;-67
2022/01/08 01:04:44;;;;;;;;;0.00;0.00;;;;;;;;5027756;27;46227;-67
2022/01/08 01:07:09;;;;;;;;;0.00;0.00;;;;;;;;5028501;27;45559;-68
2022/01/08 01:09:34;;;;;;;;;0.00;0.00;;;;;;;;5027291;28;45323;-67
2022/01/08 01:12:00;;;;;;;;;1.25;1.00;;;;;;;;5027065;28;45369;-67
2022/01/08 01:14:25;;;;;;;;;0.00;0.00;;;;;;;;5029204;27;45470;-68
2022/01/08 01:16:51;;;;;;;;;0.00;0.00;;;;;;;;5027853;28;45561;-67
2022/01/08 01:19:16;;;;;;;;;0.00;0.00;;;;;;;;5027831;28;45837;-67
2022/01/08 01:21:41;;;;;;;;;1.25;0.00;;;;;;;;5030828;28;45477;-67
2022/01/08 01:24:13;;;;;;;;;2.00;1.00;;;;;;;;5027954;28;45986;-67
2022/01/08 01:26:46;;;;;;;;;1.50;1.00;;;;;;;;5033943;27;45464;-68
2022/01/08 01:30:01;;;;;;;;;0.00;0.00;;;;;;;;5035148;27;45393;-67
2022/01/08 01:48:04;;;;;;;;;1.00;1.00;;;;;;;;5029317;28;45538;-67
2022/01/08 01:50:29;;;;;;;;;1.75;0.00;;;;;;;;5027629;28;45432;-67
2022/01/08 01:52:55;;;;;;;;;1.00;1.00;;;;;;;;5011946;27;45308;-67
2022/01/08 01:55:20;;;;;;;;;3.00;2.00;;;;;;;;5026690;27;46295;-67
2022/01/08 01:57:47;;;;;;;;;1.00;1.00;;;;;;;;5011858;28;45779;-68
2022/01/08 02:00:13;;;;;;;;;3.00;1.25;;;;;;;;5028265;28;45729;-68
2022/01/08 02:02:39;;;;;;;;;1.00;1.00;;;;;;;;5028778;28;45464;-67
2022/01/08 02:05:04;;;;;;;;;1.00;1.00;;;;;;;;5029081;27;46260;-68
2022/01/08 02:07:29;;;;;;;;;3.00;2.00;;;;;;;;5030443;28;45576;-68
2022/01/08 02:09:55;;;;;;;;;1.25;1.25;;;;;;;;5032184;28;45799;-68
2022/01/08 02:12:22;;;;;;;;;1.00;1.00;;;;;;;;5016695;27;45330;-68
2022/01/08 02:14:47;;;;;;;;;2.00;2.00;;;;;;;;5031657;28;47211;-68
2022/01/08 02:17:13;;;;;;;;;2.00;2.00;;;;;;;;5031412;28;45413;-68
2022/01/08 02:19:40;;;;;;;;;1.75;1.75;;;;;;;;5014509;27;45335;-68
2022/01/08 02:22:05;;;;;;;;;2.75;1.25;;;;;;;;5031980;28;45333;-68
2022/01/08 02:24:31;;;;;;;;;1.50;1.50;;;;;;;;5033302;27;46150;-68
2022/01/08 02:26:56;;;;;;;;;1.00;1.00;;;;;;;;5030535;28;45321;-68
2022/01/08 02:29:23;;;;;;;;;3.75;1.75;;;;;;;;5030254;28;45417;-68
2022/01/08 02:32:05;;;;;;;;;1.00;1.00;;;;;;;;5031665;28;45760;-67
2022/01/08 02:34:31;;;;;;;;;1.50;1.50;;;;;;;;5034479;28;45474;-67
2022/01/08 02:36:57;;;;;;;;;2.00;2.00;;;;;;;;5034015;27;45394;-67
2022/01/08 02:39:22;;;;;;;;;1.00;1.00;;;;;;;;5033746;27;45461;-68
2022/01/08 02:41:53;;;;;;;;;1.50;1.50;;;;;;;;5034436;27;45361;-67
2022/01/08 02:44:18;;;;;;;;;2.00;1.00;;;;;;;;5034428;27;46410;-67
2022/01/08 02:46:43;;;;;;;;;1.00;1.00;;;;;;;;5034463;27;45553;-67
2022/01/08 02:49:08;;;;;;;;;1.00;1.00;;;;;;;;5035076;27;45466;-67
2022/01/08 02:51:35;;;;;;;;;2.00;2.00;;;;;;;;5033695;27;45364;-67
2022/01/08 02:54:00;;;;;;;;;2.75;2.00;;;;;;;;5034207;28;45497;-67
2022/01/08 02:56:26;;;;;;;;;1.50;1.50;;;;;;;;5034030;27;45273;-67
2022/01/08 02:58:51;;;;;;;;;2.00;2.00;;;;;;;;5034228;28;45478;-67
2022/01/08 03:01:16;;;;;;;;;1.00;1.00;;;;;;;;5034480;28;45479;-67
2022/01/08 03:03:41;;;;;;;;;1.75;1.00;;;;;;;;5033410;28;48089;-67
2022/01/08 03:06:06;;;;;;;;;2.75;1.75;;;;;;;;5034102;27;45474;-68
2022/01/08 03:08:32;;;;;;;;;3.00;1.00;;;;;;;;5034260;28;45427;-67
2022/01/08 03:10:57;;;;;;;;;1.00;1.00;;;;;;;;5034114;27;45335;-67
2022/01/08 03:13:22;;;;;;;;;0.00;0.00;;;;;;;;5034137;27;49739;-67
2022/01/08 03:15:47;;;;;;;;;2.75;1.75;;;;;;;;5033577;27;45270;-67
2022/01/08 03:18:13;;;;;;;;;2.25;1.00;;;;;;;;5033789;28;45242;-67
2022/01/08 03:20:46;;;;;;;;;0.00;0.00;;;;;;;;5033561;28;45586;-67
2022/01/08 03:23:15;;;;;;;;;0.75;0.75;;;;;;;;5033598;28;46180;-67
2022/01/08 03:25:41;;;;;;;;;2.50;1.00;;;;;;;;5033802;27;45714;-68
2022/01/08 03:28:07;;;;;;;;;1.00;1.00;;;;;;;;5034170;27;45416;-68
2022/01/08 03:30:34;;;;;;;;;1.00;1.00;;;;;;;;5033281;27;45370;-67
2022/01/08 03:32:59;;;;;;;;;2.00;0.75;;;;;;;;5033587;27;46177;-68
2022/01/08 03:35:24;;;;;;;;;0.00;0.00;;;;;;;;5033082;27;45472;-68
2022/01/08 03:37:49;;;;;;;;;0.25;0.25;;;;;;;;5033681;27;45478;-68
2022/01/08 03:40:15;;;;;;;;;0.00;0.00;;;;;;;;5033674;27;45464;-68
2022/01/08 03:42:40;;;;;;;;;0.75;0.75;;;;;;;;5032664;27;46216;-68
2022/01/08 03:45:05;;;;;;;;;1.00;1.00;;;;;;;;5033773;27;45425;-68
2022/01/08 03:47:53;;;;;;;;;1.25;0.00;;;;;;;;5033342;27;45495;-68
2022/01/08 03:50:16;;;;;;;;;1.50;1.25;;;;;;;;5033378;27;45349;-68
2022/01/08 03:52:41;;;;;;;;;0.00;0.00;;;;;;;;5033184;27;47220;-67
2022/01/08 03:55:07;;;;;;;;;0.00;0.00;;;;;;;;5033347;28;45339;-67
2022/01/08 03:57:32;;;;;;;;;0.50;0.50;;;;;;;;5032842;27;45361;-67
2022/01/08 03:59:57;;;;;;;;;1.00;0.00;;;;;;;;5033319;27;45243;-67
2022/01/08 04:02:23;;;;;;;;;0.75;0.75;;;;;;;;5033630;28;46051;-67
2022/01/08 04:04:48;;;;;;;;;0.00;0.00;;;;;;;;5033526;27;45506;-67
2022/01/08 04:07:13;;;;;;;;;0.00;0.00;;;;;;;;5033651;27;45584;-67
2022/01/08 04:09:39;;;;;;;;;1.75;0.25;;;;;;;;5032660;27;45365;-68
2022/01/08 04:12:06;;;;;;;;;0.00;0.00;;;;;;;;5033193;28;46150;-68
2022/01/08 04:14:41;;;;;;;;;0.00;0.00;;;;;;;;5033381;27;45460;-68
2022/01/08 04:17:07;;;;;;;;;1.50;0.00;;;;;;;;5033733;27;45423;-68
2022/01/08 04:19:32;;;;;;;;;0.50;0.25;;;;;;;;5032934;27;47613;-68
2022/01/08 04:22:09;;;;;;;;;0.00;0.00;;;;;;;;5032965;27;46233;-68
2022/01/08 04:24:34;;;;;;;;;0.00;0.00;;;;;;;;5027913;27;45530;-68
2022/01/08 04:26:59;;;;;;;;;0.50;0.50;;;;;;;;5032544;28;45509;-68
2022/01/08 04:29:25;;;;;;;;;0.00;0.00;;;;;;;;5032219;27;45438;-67
2022/01/08 04:31:50;;;;;;;;;0.00;0.00;;;;;;;;5033168;27;45530;-68
2022/01/08 04:34:15;;;;;;;;;1.00;1.00;;;;;;;;5033061;27;45263;-68
2022/01/08 04:36:40;;;;;;;;;1.00;1.00;;;;;;;;5032381;27;45440;-68
2022/01/08 04:39:06;;;;;;;;;0.50;0.50;;;;;;;;5032853;28;45221;-67
2022/01/08 04:41:31;;;;;;;;;1.00;1.00;;;;;;;;5032278;27;46354;-68
2022/01/08 04:43:56;;;;;;;;;0.25;0.25;;;;;;;;5032711;27;45311;-68
2022/01/08 04:46:21;;;;;;;;;1.50;1.00;;;;;;;;5033196;27;45388;-68
2022/01/08 04:48:46;;;;;;;;;1.00;1.00;;;;;;;;5032013;27;45341;-68
2022/01/08 04:51:12;;;;;;;;;0.00;0.00;;;;;;;;5032975;27;46325;-68
2022/01/08 04:53:37;;;;;;;;;1.25;0.25;;;;;;;;5032774;27;45471;-68
2022/01/08 04:56:02;;;;;;;;;0.50;0.00;;;;;;;;5033210;27;45385;-68
2022/01/08 04:58:28;;;;;;;;;0.00;0.00;;;;;;;;5033339;27;45470;-68
2022/01/08 05:00:53;;;;;;;;;0.00;0.00;;;;;;;;5032977;27;45893;-68
2022/01/08 05:03:18;;;;;;;;;1.50;0.00;;;;;;;;5031863;27;45322;-68
2022/01/08 05:05:44;;;;;;;;;0.75;0.75;;;;;;;;5032890;27;45367;-68
2022/01/08 05:08:09;;;;;;;;;0.75;0.75;;;;;;;;5033019;27;45469;-68
2022/01/08 05:10:34;;;;;;;;;1.00;1.00;;;;;;;;5032116;28;46114;-68
2022/01/08 05:13:03;;;;;;;;;1.00;1.00;;;;;;;;5032450;27;45354;-68
2022/01/08 05:15:29;;;;;;;;;1.00;1.00;;;;;;;;5031750;27;45511;-68
2022/01/08 05:17:55;;;;;;;;;1.00;0.25;;;;;;;;5032001;27;45486;-69
2022/01/08 05:20:20;;;;;;;;;0.50;0.50;;;;;;;;5032343;27;47001;-68
2022/01/08 05:22:52;;;;;;;;;0.75;0.75;;;;;;;;5031758;27;45378;-68
2022/01/08 05:25:18;;;;;;;;;0.00;0.00;;;;;;;;5032509;27;45582;-68
2022/01/08 05:27:44;;;;;;;;;1.50;0.00;;;;;;;;5031585;27;45348;-68
2022/01/08 05:30:10;;;;;;;;;1.00;1.00;;;;;;;;5031900;27;45372;-68
2022/01/08 05:32:35;;;;;;;;;2.00;1.00;;;;;;;;5031619;28;45452;-68
2022/01/08 05:35:00;;;;;;;;;1.75;0.50;;;;;;;;5031936;28;45220;-68
2022/01/08 05:37:26;;;;;;;;;1.00;1.00;;;;;;;;5031837;28;45280;-68
2022/01/08 05:39:51;;;;;;;;;0.25;0.00;;;;;;;;5031027;27;45426;-68
2022/01/08 05:42:17;;;;;;;;;1.00;1.00;;;;;;;;5031904;28;45370;-68
2022/01/08 05:44:42;;;;;;;;;1.00;1.00;;;;;;;;5034652;27;45225;-67
2022/01/08 05:47:07;;;;;;;;;0.50;0.50;;;;;;;;5034934;27;45400;-67
2022/01/08 05:49:32;;;;;;;;;1.00;1.00;;;;;;;;5034431;27;46029;-68
2022/01/08 05:51:58;;;;;;;;;1.00;1.00;;;;;;;;5034725;27;45273;-68
2022/01/08 05:54:23;;;;;;;;;0.00;0.00;;;;;;;;5034163;27;45472;-67
2022/01/08 05:56:50;;;;;;;;;0.00;0.00;;;;;;;;5034210;27;45357;-68
2022/01/08 05:59:15;;;;;;;;;1.00;1.00;;;;;;;;5034198;27;47378;-67
2022/01/08 06:01:40;;;;;;;;;3.25;1.25;;;;;;;;5033997;27;45479;-67
2022/01/08 06:04:05;;;;;;;;;1.00;1.00;;;;;;;;5034399;27;45344;-67
2022/01/08 06:06:31;;;;;;;;;2.50;0.00;;;;;;;;5033522;28;45600;-67
2022/01/08 06:08:56;;;;;;;;;0.00;0.00;;;;;;;;5034159;27;46144;-67
2022/01/08 06:11:21;;;;;;;;;0.00;0.00;;;;;;;;5033945;28;45386;-67
2022/01/08 06:13:47;;;;;;;;;1.00;1.00;;;;;;;;5033924;27;45437;-68
2022/01/08 06:16:12;;;;;;;;;0.00;0.00;;;;;;;;5033857;27;45434;-68
2022/01/08 06:18:38;;;;;;;;;0.00;0.00;;;;;;;;5033401;27;46227;-67
2022/01/08 06:21:03;;;;;;;;;0.00;0.00;;;;;;;;5035905;27;45455;-68
2022/01/08 06:23:29;;;;;;;;;1.50;0.25;;;;;;;;5033699;27;45354;-68
2022/01/08 06:25:54;;;;;;;;;1.25;1.00;;;;;;;;5034279;27;45491;-68
2022/01/08 06:28:19;;;;;;;;;0.00;0.00;;;;;;;;5034138;27;47379;-67
2022/01/08 06:30:45;;;;;;;;;0.00;0.00;;;;;;;;5033149;27;45455;-68
2022/01/08 06:33:10;;;;;;;;;2.50;1.50;;;;;;;;5034616;27;45272;-67
2022/01/08 06:35:35;;;;;;;;;0.00;0.00;;;;;;;;5033768;27;45436;-68
2022/01/08 06:38:00;;;;;;;;;1.00;1.00;;;;;;;;5033556;27;45431;-68
2022/01/08 06:40:25;;;;;;;;;1.25;1.25;;;;;;;;5033915;28;45370;-68
2022/01/08 06:42:51;;;;;;;;;1.00;1.00;;;;;;;;5033915;27;45348;-68
2022/01/08 06:45:16;;;;;;;;;2.00;0.00;;;;;;;;5033311;27;45276;-68
2022/01/08 06:47:45;;;;;;;;;0.00;0.00;;;;;;;;5033758;27;46395;-68
2022/01/08 06:50:10;;;;;;;;;1.00;1.00;;;;;;;;5033593;27;45624;-67
2022/01/08 06:52:36;;;;;;;;;3.00;3.00;;;;;;;;5033850;27;45480;-67
2022/01/08 06:55:01;;;;;;;;;5.25;2.00;;;;;;;;5034025;27;45607;-67
2022/01/08 06:57:26;;;;;;;;;2.00;2.00;;;;;;;;5032915;27;45999;-67
2022/01/08 06:59:51;;;;;;;;;2.25;2.25;;;;;;;;5033161;27;45422;-67
2022/01/08 07:02:17;;;;;;;;;0.50;0.50;;;;;;;;5033718;27;45381;-67
2022/01/08 07:04:42;;;;;;;;;0.75;0.75;;;;;;;;5033929;28;45335;-68
2022/01/08 07:07:07;;;;;;;;;2.00;2.00;;;;;;;;5033614;27;46432;-68
2022/01/08 07:09:32;;;;;;;;;1.00;1.00;;;;;;;;5032488;27;45599;-68
2022/01/08 07:11:57;;;;;;;;;1.25;1.25;;;;;;;;5033512;27;45250;-68
2022/01/08 07:14:22;;;;;;;;;0.25;0.25;;;;;;;;5033679;28;45553;-67
2022/01/08 07:16:49;;;;;;;;;2.00;1.00;;;;;;;;5033876;28;45517;-67
2022/01/08 07:19:14;;;;;;;;;0.75;0.75;;;;;;;;5033705;27;45365;-66
2022/01/08 07:21:39;;;;;;;;;3.00;1.50;;;;;;;;5032077;28;45346;-66
2022/01/08 07:24:04;;;;;;;;;2.75;1.00;;;;;;;;5034879;27;45513;-67
2022/01/08 07:26:30;;;;;;;;;1.00;1.00;;;;;;;;5033126;28;46977;-68
2022/01/08 07:28:55;;;;;;;;;3.00;2.00;;;;;;;;5033238;27;45360;-67
2022/01/08 07:31:22;;;;;;;;;3.50;2.25;;;;;;;;5032566;27;45451;-67
2022/01/08 07:33:49;;;;;;;;;1.75;1.75;;;;;;;;5031981;27;45274;-67
2022/01/08 07:36:15;;;;;;;;;4.25;2.75;;;;;;;;5032430;27;46932;-69
2022/01/08 07:38:40;;;;;;;;;1.25;1.25;;;;;;;;5033119;27;45493;-68
2022/01/08 07:41:05;;;;;;;;;1.75;1.00;;;;;;;;5033195;28;45459;-67
2022/01/08 07:43:30;;;;;;;;;4.25;4.25;;;;;;;;5033147;27;45559;-67
2022/01/08 07:45:56;;;;;;;;;2.75;2.75;;;;;;;;5033310;27;45469;-67
2022/01/08 07:48:21;;;;;;;;;5.75;2.75;;;;;;;;5032560;27;45359;-67
2022/01/08 07:50:46;;;;;;;;;2.50;2.50;;;;;;;;5032870;27;45466;-67
2022/01/08 07:53:11;;;;;;;;;3.50;3.50;;;;;;;;5033148;28;45459;-67
2022/01/08 07:55:36;;;;;;;;;2.50;2.50;;;;;;;;5033008;27;46252;-67
2022/01/08 07:58:02;;;;;;;;;5.00;4.00;;;;;;;;5014954;27;45452;-67
2022/01/08 08:00:27;;;;;;;;;5.50;4.00;;;;;;;;5031985;27;45558;-67
2022/01/08 08:02:52;;;;;;;;;6.75;4.00;;;;;;;;5032661;27;45583;-68
2022/01/08 08:05:17;;;;;;;;;3.50;2.00;;;;;;;;5031405;27;47055;-66
2022/01/08 08:07:43;;;;;;;;;6.00;3.00;;;;;;;;5032403;27;45478;-67
2022/01/08 08:10:17;;;;;;;;;8.25;3.00;;;;;;;;5032581;27;45435;-67
2022/01/08 08:12:42;;;;;;;;;5.25;4.00;;;;;;;;5028039;28;45566;-67
2022/01/08 08:15:08;;;;;;;;;6.25;4.00;;;;;;;;5033081;27;46055;-67
2022/01/08 08:17:34;;;;;;;;;6.25;5.00;;;;;;;;5033072;28;45799;-67
2022/01/08 08:20:00;;;;;;;;;3.50;3.00;;;;;;;;5032949;27;45469;-68
2022/01/08 08:22:25;;;;;;;;;7.75;4.00;;;;;;;;5032638;27;45278;-68
2022/01/08 08:24:50;;;;;;;;;5.00;3.75;;;;;;;;5023469;27;45856;-68
2022/01/08 08:27:15;;;;;;;;;5.00;4.75;;;;;;;;5029133;27;45475;-67
2022/01/08 08:29:41;;;;;;;;;2.00;2.00;;;;;;;;5029342;28;45361;-67
2022/01/08 08:32:07;;;;;;;;;5.50;1.25;;;;;;;;5029321;27;45520;-67
2022/01/08 08:34:32;;;;;;;;;3.00;3.00;;;;;;;;5036274;28;46268;-67
2022/01/08 08:36:57;;;;;;;;;8.00;4.50;;;;;;;;5029743;28;45667;-67
2022/01/08 08:39:23;;;;;;;;;4.25;4.00;;;;;;;;5037777;27;45295;-67
2022/01/08 08:41:49;;;;;;;;;4.00;3.75;;;;;;;;5031117;28;45278;-67
2022/01/08 08:44:14;;;;;;;;;3.00;2.00;;;;;;;;5034607;27;46189;-67
2022/01/08 08:46:39;;;;;;;;;5.75;4.00;;;;;;;;5028933;28;45404;-68
2022/01/08 08:49:04;;;;;;;;;3.25;3.00;;;;;;;;5011070;28;45557;-68
2022/01/08 08:51:29;;;;;;;;;9.00;5.25;;;;;;;;5031010;27;45242;-68
2022/01/08 08:53:55;;;;;;;;;7.25;3.00;;;;;;;;5030686;28;47284;-68
2022/01/08 08:56:21;;;;;;;;;6.75;6.75;;;;;;;;5033304;27;46517;-68
2022/01/08 08:58:46;;;;;;;;;10.00;4.00;;;;;;;;5029886;27;45517;-68
2022/01/08 09:01:11;;;;;;;;;3.75;3.75;;;;;;;;5027643;27;45376;-67
2022/01/08 09:03:38;;;;;;;;;3.75;3.75;;;;;;;;5045887;28;46049;-67
2022/01/08 09:06:03;;;;;;;;;4.00;3.00;;;;;;;;5011597;27;45384;-68
2022/01/08 09:08:29;;;;;;;;;5.75;3.00;;;;;;;;5050009;27;45534;-68
2022/01/08 09:10:54;;;;;;;;;10.00;5.00;;;;;;;;5051243;27;45557;-67
2022/01/08 09:13:20;;;;;;;;;8.25;6.75;;;;;;;;5028340;28;45666;-67
2022/01/08 09:15:46;;;;;;;;;8.25;5.00;;;;;;;;5030987;28;45273;-68
2022/01/08 09:18:11;;;;;;;;;5.00;5.00;;;;;;;;5032293;27;45273;-67
2022/01/08 09:20:37;;;;;;;;;4.00;4.00;;;;;;;;5030738;28;45471;-67
2022/01/08 09:23:03;;;;;;;;;8.00;6.25;;;;;;;;5032212;28;46896;-67
2022/01/08 09:25:28;;;;;;;;;4.75;3.50;;;;;;;;5030215;28;45414;-67
2022/01/08 09:27:53;;;;;;;;;5.00;3.00;;;;;;;;5032244;28;45191;-66
2022/01/08 09:30:21;;;;;;;;;7.00;5.50;;;;;;;;5032839;27;45302;-67
2022/01/08 09:32:46;;;;;;;;;4.00;3.25;;;;;;;;5029244;27;46267;-77
2022/01/08 09:35:12;;;;;;;;;4.25;3.50;;;;;;;;5032550;28;45331;-67
2022/01/08 09:37:39;;;;;;;;;6.50;5.00;;;;;;;;5038393;28;45300;-67
2022/01/08 09:40:08;;;;;;;;;8.75;4.75;;;;;;;;5032074;28;45551;-69
2022/01/08 09:42:33;;;;;;;;;7.00;4.00;;;;;;;;5033354;27;47337;-68
2022/01/08 09:44:58;;;;;;;;;3.00;2.50;;;;;;;;5031278;27;45342;-68
2022/01/08 09:47:23;;;;;;;;;3.00;3.00;;;;;;;;5030197;27;45519;-67
2022/01/08 09:49:50;;;;;;;;;6.00;5.75;;;;;;;;5030343;27;45538;-69
2022/01/08 09:52:15;;;;;;;;;4.50;4.50;;;;;;;;5030585;28;47511;-68
2022/01/08 09:54:40;;;;;;;;;5.00;4.75;;;;;;;;5014123;28;45540;-69
2022/01/08 09:57:05;;;;;;;;;4.00;3.75;;;;;;;;5030973;28;45475;-69
2022/01/08 09:59:31;;;;;;;;;5.00;3.50;;;;;;;;5030362;27;45504;-69
2022/01/08 10:01:59;;;;;;;;;2.50;2.50;;;;;;;;5030262;27;46231;-69
2022/01/08 10:04:26;;;;;;;;;10.50;4.00;;;;;;;;5030813;28;45522;-70
2022/01/08 10:06:51;;;;;;;;;6.00;4.00;;;;;;;;5031672;28;45411;-73
2022/01/08 10:09:16;;;;;;;;;3.25;3.25;;;;;;;;5032060;28;45459;-68
2022/01/08 10:11:48;;;;;;;;;6.75;4.00;;;;;;;;5030658;28;45507;-68
2022/01/08 10:14:27;;;;;;;;;5.75;4.75;;;;;;;;5028302;27;45659;-68
2022/01/08 10:17:35;;;;;;;;;3.00;2.75;;;;;;;;5027339;27;45511;-69
2022/01/08 10:19:42;;;;;;;;;7.00;5.00;;;;;;;;5028065;28;45542;-68
2022/01/08 10:22:16;;;;;;;;;4.25;3.75;;;;;;;;5030954;28;45292;-68
2022/01/08 10:24:46;;;;;;;;;5.00;5.00;;;;;;;;5030138;27;45487;-69
2022/01/08 10:27:11;;;;;;;;;5.25;2.50;;;;;;;;5029902;28;45352;-68
2022/01/08 10:29:36;;;;;;;;;4.25;4.25;;;;;;;;5031248;27;45341;-69
2022/01/08 10:32:04;;;;;;;;;3.75;3.25;;;;;;;;5029015;27;45654;-69
2022/01/08 10:34:30;;;;;;;;;6.00;4.50;;;;;;;;5028226;28;45318;-69
2022/01/08 10:36:55;;;;;;;;;7.75;3.25;;;;;;;;5029962;28;45556;-69
2022/01/08 10:39:21;;;;;;;;;4.50;3.25;;;;;;;;5028047;27;45444;-69
2022/01/08 10:41:47;;;;;;;;;6.00;5.00;;;;;;;;5020487;27;46292;-69
2022/01/08 10:44:16;;;;;;;;;5.50;5.50;;;;;;;;5020147;27;45472;-69
2022/01/08 10:46:54;;;;;;;;;6.75;4.50;;;;;;;;5027309;28;45439;-68
2022/01/08 10:49:27;;;;;;;;;4.50;4.25;;;;;;;;5012889;28;45549;-69
2022/01/08 10:51:55;;;;;;;;;10.00;7.25;;;;;;;;5030231;28;46388;-68
2022/01/08 10:54:24;;;;;;;;;6.50;4.25;;;;;;;;5029817;27;45386;-68
2022/01/08 10:56:50;;;;;;;;;6.75;4.50;;;;;;;;5028116;28;45530;-68
2022/01/08 10:59:15;;;;;;;;;6.75;5.50;;;;;;;;5028551;27;45499;-68
2022/01/08 11:01:45;;;;;;;;;9.00;6.25;;;;;;;;5028205;27;46951;-68
2022/01/08 11:04:12;;;;;;;;;3.00;3.00;;;;;;;;5012918;28;45539;-68
2022/01/08 11:06:56;;;;;;;;;5.75;3.00;;;;;;;;5026921;27;45409;-69
2022/01/08 11:09:23;;;;;;;;;6.50;5.50;;;;;;;;5029679;28;45436;-67
2022/01/08 11:11:51;;;;;;;;;5.25;3.00;;;;;;;;5012199;27;46970;-67
2022/01/08 11:14:47;;;;;;;;;6.75;5.00;;;;;;;;5027584;27;45345;-70
2022/01/08 11:17:33;;;;;;;;;10.00;5.00;;;;;;;;5026982;27;45434;-66
2022/01/08 11:20:00;;;;;;;;;5.75;3.25;;;;;;;;5026026;27;46059;-67
2022/01/08 11:22:26;;;;;;;;;4.75;3.75;;;;;;;;5027086;28;46153;-67
2022/01/08 11:24:57;;;;;;;;;4.00;3.00;;;;;;;;5029603;28;45653;-67
2022/01/08 11:27:24;;;;;;;;;6.00;2.75;;;;;;;;5029564;27;45345;-67
2022/01/08 11:29:55;;;;;;;;;3.50;3.50;;;;;;;;5027773;27;45440;-67
2022/01/08 11:32:21;;;;;;;;;3.50;3.50;;;;;;;;5027275;28;45487;-69
2022/01/08 11:34:46;;;;;;;;;5.00;3.50;;;;;;;;5027360;28;45381;-69
2022/01/08 11:37:14;;;;;;;;;7.25;5.00;;;;;;;;5028261;27;45309;-70
2022/01/08 11:39:40;;;;;;;;;10.50;4.25;;;;;;;;5029325;28;45276;-68
2022/01/08 11:42:05;;;;;;;;;5.75;5.25;;;;;;;;5027456;28;45595;-68
2022/01/08 11:44:32;;;;;;;;;4.50;2.00;;;;;;;;5027476;28;45353;-69
2022/01/08 11:46:59;;;;;;;;;7.00;6.00;;;;;;;;5027452;27;45585;-69
2022/01/08 11:49:24;;;;;;;;;5.00;4.50;;;;;;;;5028118;28;45547;-70
2022/01/08 11:52:09;;;;;;;;;5.00;3.25;;;;;;;;5011511;28;46370;-69
2022/01/08 11:54:42;;;;;;;;;5.00;4.25;;;;;;;;5053909;27;45415;-71
2022/01/08 11:57:14;;;;;;;;;3.25;3.00;;;;;;;;5028990;27;45478;-69
2022/01/08 11:59:39;;;;;;;;;4.75;2.75;;;;;;;;5027190;28;45450;-68
2022/01/08 12:02:06;;;;;;;;;8.00;5.00;;;;;;;;5026894;28;46326;-68
2022/01/08 12:04:33;;;;;;;;;3.50;3.50;;;;;;;;5026993;28;45380;-69
2022/01/08 12:06:58;;;;;;;;;9.00;7.50;;;;;;;;5036209;28;45357;-71
2022/01/08 12:09:25;;;;;;;;;7.75;6.00;;;;;;;;5029343;28;45864;-69
2022/01/08 12:11:58;;;;;;;;;8.25;6.50;;;;;;;;5026584;27;47005;-69
2022/01/08 12:14:25;;;;;;;;;2.50;2.50;;;;;;;;5027071;27;45354;-69
2022/01/08 12:16:51;;;;;;;;;7.50;5.50;;;;;;;;5026615;27;45413;-67
2022/01/08 12:19:46;;;;;;;;;7.75;4.75;;;;;;;;5028063;27;45364;-70
2022/01/08 12:22:20;;;;;;;;;8.50;6.00;;;;;;;;5006666;28;46269;-69
2022/01/08 12:24:49;;;;;;;;;6.50;5.00;;;;;;;;5026337;27;45390;-69
2022/01/08 12:27:33;;;;;;;;;6.50;4.75;;;;;;;;5029729;27;45327;-69
2022/01/08 12:29:58;;;;;;;;;5.75;3.50;;;;;;;;5026687;27;45415;-69
2022/01/08 12:32:37;;;;;;;;;5.75;5.00;;;;;;;;5026695;27;46871;-68
2022/01/08 12:35:02;;;;;;;;;7.00;6.00;;;;;;;;5029103;27;45420;-68
2022/01/08 12:37:34;;;;;;;;;7.00;7.00;;;;;;;;5027119;27;45330;-68
2022/01/08 12:40:00;;;;;;;;;5.00;2.50;;;;;;;;5023734;28;45379;-69
2022/01/08 12:42:28;;;;;;;;;6.00;5.00;;;;;;;;5029151;28;47131;-70
2022/01/08 12:45:10;;;;;;;;;6.75;2.25;;;;;;;;5028625;27;45639;-71
2022/01/08 12:47:56;;;;;;;;;7.50;7.50;;;;;;;;5027668;28;45373;-69
2022/01/08 12:50:25;;;;;;;;;3.25;3.00;;;;;;;;5026580;27;45609;-70
2022/01/08 12:53:05;;;;;;;;;8.50;5.00;;;;;;;;5026922;27;46660;-69
2022/01/08 12:55:34;;;;;;;;;8.50;7.00;;;;;;;;5028132;28;45428;-69
2022/01/08 12:58:00;;;;;;;;;12.75;7.50;;;;;;;;5027664;28;45274;-68
2022/01/08 13:00:25;;;;;;;;;3.50;3.25;;;;;;;;5029140;28;45377;-68
2022/01/08 13:02:55;;;;;;;;;4.25;4.25;;;;;;;;5027625;28;47245;-68
2022/01/08 13:05:20;;;;;;;;;7.50;3.50;;;;;;;;5028368;27;45520;-67
2022/01/08 13:07:52;;;;;;;;;3.50;1.75;;;;;;;;5028192;27;45417;-68
2022/01/08 13:10:18;;;;;;;;;5.50;3.00;;;;;;;;5028216;28;45357;-67
2022/01/08 13:12:59;;;;;;;;;5.75;4.00;;;;;;;;5029718;28;46303;-69
2022/01/08 13:15:29;;;;;;;;;7.25;6.75;;;;;;;;5030203;27;45400;-68
2022/01/08 13:17:54;;;;;;;;;3.50;3.25;;;;;;;;5027961;27;45486;-67
2022/01/08 13:20:19;;;;;;;;;5.75;3.75;;;;;;;;5030820;28;45218;-67
2022/01/08 13:22:48;;;;;;;;;4.75;3.75;;;;;;;;5030818;27;45539;-67
2022/01/08 13:25:14;;;;;;;;;2.00;2.00;;;;;;;;5031241;27;45287;-68
2022/01/08 13:27:40;;;;;;;;;6.50;5.00;;;;;;;;5030239;27;45609;-67
2022/01/08 13:30:09;;;;;;;;;2.25;2.25;;;;;;;;5030482;27;45305;-68
2022/01/08 13:32:35;;;;;;;;;3.00;3.00;;;;;;;;5029315;27;46160;-67
2022/01/08 13:35:01;;;;;;;;;4.50;2.00;;;;;;;;5030199;27;45425;-68
2022/01/08 13:37:27;;;;;;;;;7.50;4.50;;;;;;;;5032294;27;45434;-69
2022/01/08 13:39:55;;;;;;;;;4.25;3.00;;;;;;;;5030151;27;45418;-68
2022/01/08 13:42:21;;;;;;;;;4.50;1.00;;;;;;;;5029504;28;46244;-68
2022/01/08 13:44:52;;;;;;;;;5.25;4.50;;;;;;;;5030096;27;45437;-69
2022/01/08 13:47:18;;;;;;;;;4.00;2.00;;;;;;;;5030603;28;46031;-67
2022/01/08 13:49:48;;;;;;;;;5.00;3.00;;;;;;;;5030710;27;45629;-69
2022/01/08 13:52:19;;;;;;;;;5.50;2.00;;;;;;;;5030608;27;46038;-69
2022/01/08 13:54:44;;;;;;;;;10.00;3.50;;;;;;;;5025743;27;45450;-69
2022/01/08 13:57:10;;;;;;;;;3.00;3.00;;;;;;;;5016752;27;45414;-67
2022/01/08 13:59:35;;;;;;;;;9.50;3.00;;;;;;;;5023610;27;45414;-67
2022/01/08 14:02:02;;;;;;;;;5.00;4.00;;;;;;;;5025928;28;47088;-68
2022/01/08 14:04:29;;;;;;;;;0.00;0.00;;;;;;;;5029070;27;45483;-68
2022/01/08 14:06:57;;;;;;;;;4.50;3.00;;;;;;;;5040593;28;45441;-68
2022/01/08 14:09:22;;;;;;;;;3.00;2.50;;;;;;;;5030591;28;45352;-67
2022/01/08 14:11:48;;;;;;;;;2.75;1.00;;;;;;;;5028641;27;45547;-67
2022/01/08 14:14:18;;;;;;;;;3.50;1.00;;;;;;;;5029506;28;45508;-68
2022/01/08 14:16:43;;;;;;;;;4.75;3.00;;;;;;;;5050849;27;45295;-68
2022/01/08 14:19:10;;;;;;;;;2.75;2.00;;;;;;;;5015110;28;45246;-69
2022/01/08 14:21:36;;;;;;;;;5.75;2.50;;;;;;;;5032492;27;46143;-68
2022/01/08 14:24:15;;;;;;;;;7.00;2.00;;;;;;;;5032531;27;45346;-67
2022/01/08 14:26:41;;;;;;;;;1.50;0.75;;;;;;;;5039927;27;46099;-67
2022/01/08 14:29:09;;;;;;;;;4.50;3.25;;;;;;;;5044558;27;28442;-68
2022/01/08 14:31:35;;;;;;;;;4.00;4.00;;;;;;;;5044391;27;28577;-69
2022/01/08 14:34:03;;;;;;;;;2.00;2.00;;;;;;;;5041516;27;45232;-68
2022/01/08 14:37:14;;;;;;;;;2.00;2.00;;;;;;;;3657402;27;81844956;-67
2022/01/08 14:39:45;;;;;;;;;4.25;0.75;;;;;;;;1970229;27;47081933;-69
2022/01/08 14:42:12;;;;;;;;;5.00;2.00;;;;;;;;5059453;28;28428;-69
2022/01/08 14:44:39;;;;;;;;;3.00;3.00;;;;;;;;5043531;28;28553;-69
2022/01/08 14:47:04;;;;;;;;;2.50;2.50;;;;;;;;5046939;28;28380;-69
2022/01/08 14:50:30;;;;;;;;;5.00;4.00;;;;;;;;2970702;28;115614534;-68
2022/01/08 14:53:08;;;;;;;;;13.00;5.50;;;;;;;;521012;27;142634891;-68
2022/01/08 14:55:34;;;;;;;;;6.50;5.00;;;;;;;;5043440;27;361324;-67
2022/01/08 14:58:00;;;;;;;;;3.00;3.00;;;;;;;;3293560;27;7911236;-67
2022/01/08 15:00:25;;;;;;;;;4.25;2.75;;;;;;;;2547205;28;48426823;-67